createdAt,value
2019-01-29T00:03:30.285Z,178.77
2019-01-29T00:07:41.211Z,181.07
2019-01-29T00:11:52.178Z,188.90
2019-01-29T00:16:03.178Z,178.60
2019-01-29T00:20:14.116Z,193.37
2019-01-29T00:24:25.028Z,186.53
2019-01-29T00:28:36.137Z,182.80
2019-01-29T00:32:47.276Z,186.30
2019-01-29T00:36:58.321Z,184.13
2019-01-29T00:41:08.259Z,179.60
2019-01-29T00:45:19.150Z,188.97
2019-01-29T00:49:30.147Z,185.50
2019-01-29T00:53:41.177Z,186.63
2019-01-29T00:57:54.083Z,186.23
2019-01-29T01:02:05.108Z,173.90
2019-01-29T01:06:16.037Z,176.32
2019-01-29T01:10:27.066Z,184.83
2019-01-29T01:14:37.989Z,183.87
2019-01-29T01:18:48.813Z,187.83
2019-01-29T01:22:59.846Z,185.97
2019-01-29T01:27:10.863Z,185.80
2019-01-29T01:31:21.897Z,176.23
2019-01-29T01:35:32.695Z,181.20
2019-01-29T01:39:44.454Z,184.10
2019-01-29T01:43:55.223Z,186.87
2019-01-29T01:48:06.137Z,182.00
2019-01-29T01:52:17.103Z,180.57
2019-01-29T01:56:28.083Z,190.35
2019-01-29T02:00:39.162Z,192.83
2019-01-29T02:04:49.999Z,181.83
2019-01-29T02:09:01.071Z,182.27
2019-01-29T02:13:12.216Z,191.80
2019-01-29T02:17:23.311Z,188.30
2019-01-29T02:21:34.197Z,198.70
2019-01-29T02:25:45.142Z,183.77
2019-01-29T02:29:56.483Z,181.17
2019-01-29T02:34:08.433Z,185.77
2019-01-29T02:38:19.393Z,182.00
2019-01-29T02:42:30.421Z,186.90
2019-01-29T02:46:41.417Z,176.93
2019-01-29T02:50:52.452Z,193.97
2019-01-29T02:55:21.743Z,183.07
2019-01-29T03:00:10.036Z,172.80
2019-01-29T03:04:39.592Z,179.50
2019-01-29T03:09:08.477Z,187.47
2019-01-29T03:13:19.465Z,176.50
2019-01-29T03:17:30.628Z,181.00
2019-01-29T03:21:41.444Z,178.60
2019-01-29T03:25:54.820Z,189.17
2019-01-29T03:30:09.290Z,176.03
2019-01-29T03:34:20.208Z,212.73
2019-01-29T03:38:31.324Z,181.90
2019-01-29T03:42:42.361Z,182.37
2019-01-29T03:46:53.155Z,187.47
2019-01-29T03:51:04.036Z,184.37
2019-01-29T03:55:16.127Z,183.90
2019-01-29T03:59:28.466Z,194.97
2019-01-29T04:03:39.514Z,179.97
2019-01-29T04:07:50.806Z,182.53
2019-01-29T04:12:02.045Z,181.07
2019-01-29T04:16:13.203Z,176.10
2019-01-29T04:20:24.463Z,188.23
2019-01-29T04:24:35.433Z,187.63
2019-01-29T04:28:46.361Z,180.40
2019-01-29T04:32:57.400Z,184.63
2019-01-29T04:37:08.220Z,178.33
2019-01-29T04:41:19.230Z,179.40
2019-01-29T04:45:31.323Z,187.37
2019-01-29T04:49:42.462Z,188.10
2019-01-29T04:53:57.632Z,194.20
2019-01-29T04:58:05.819Z,188.70
2019-01-29T05:02:16.819Z,178.17
2019-01-29T05:06:27.832Z,180.43
2019-01-29T05:10:40.181Z,181.87
2019-01-29T05:14:51.312Z,185.73
2019-01-29T05:19:02.327Z,178.27
2019-01-29T05:23:13.372Z,182.50
2019-01-29T05:27:24.303Z,186.70
2019-01-29T05:31:35.484Z,179.37
2019-01-29T05:35:46.578Z,178.77
2019-01-29T05:39:57.522Z,178.87
2019-01-29T05:44:08.463Z,181.17
2019-01-29T05:48:19.762Z,182.77
2019-01-29T05:52:30.999Z,185.60
2019-01-29T05:56:42.020Z,183.93
2019-01-29T06:00:52.821Z,183.93
2019-01-29T06:05:08.208Z,188.00
2019-01-29T06:09:20.512Z,183.57
2019-01-29T06:13:31.354Z,195.33
2019-01-29T06:17:42.283Z,179.37
2019-01-29T06:21:54.358Z,188.97
2019-01-29T06:26:06.445Z,188.03
2019-01-29T06:30:19.415Z,180.33
2019-01-29T06:34:30.260Z,192.33
2019-01-29T06:38:41.493Z,175.97
2019-01-29T06:43:08.643Z,171.70
2019-01-29T06:47:35.878Z,173.90
2019-01-29T06:52:03.317Z,187.20
2019-01-29T06:56:30.920Z,178.93
2019-01-29T07:00:58.570Z,173.73
2019-01-29T07:05:26.610Z,182.47
2019-01-29T07:09:53.849Z,178.37
2019-01-29T07:14:20.987Z,184.23
2019-01-29T07:18:50.081Z,184.63
2019-01-29T07:23:17.243Z,182.07
2019-01-29T07:27:44.976Z,184.77
2019-01-29T07:32:12.503Z,170.97
2019-01-29T07:36:39.760Z,180.30
2019-01-29T07:41:07.514Z,174.00
2019-01-29T07:45:35.012Z,177.53
2019-01-29T07:50:02.701Z,186.93
2019-01-29T07:54:33.388Z,184.23
2019-01-29T07:58:59.143Z,182.87
2019-01-29T08:03:27.126Z,174.87
2019-01-29T08:07:54.110Z,177.43
2019-01-29T08:12:21.527Z,179.50
2019-01-29T08:16:49.137Z,187.53
2019-01-29T08:21:16.686Z,182.03
2019-01-29T08:25:47.959Z,184.40
2019-01-29T08:30:17.987Z,180.60
2019-01-29T08:34:45.788Z,184.60
2019-01-29T08:39:13.269Z,180.37
2019-01-29T08:43:40.274Z,183.87
2019-01-29T08:48:07.841Z,176.17
2019-01-29T08:52:34.508Z,182.73
2019-01-29T08:57:01.687Z,185.67
2019-01-29T09:01:29.589Z,187.50
2019-01-29T09:05:58.409Z,178.00
2019-01-29T09:10:25.766Z,191.23
2019-01-29T09:14:54.008Z,189.60
2019-01-29T09:19:22.332Z,193.73
2019-01-29T09:23:49.731Z,192.30
2019-01-29T09:28:18.677Z,186.70
2019-01-29T09:32:46.291Z,182.97
2019-01-29T09:37:13.858Z,181.40
2019-01-29T09:41:41.477Z,182.40
2019-01-29T09:46:08.794Z,185.30
2019-01-29T09:50:36.138Z,189.03
2019-01-29T09:55:05.265Z,187.80
2019-01-29T09:59:32.607Z,184.63
2019-01-29T10:04:00.399Z,190.30
2019-01-29T10:08:27.565Z,181.27
2019-01-29T10:12:54.673Z,185.07
2019-01-29T10:17:22.641Z,188.97
2019-01-29T10:21:49.659Z,186.13
2019-01-29T10:26:17.021Z,188.27
2019-01-29T10:30:43.992Z,181.43
2019-01-29T10:35:13.857Z,187.00
2019-01-29T10:39:41.395Z,179.87
2019-01-29T10:44:08.850Z,194.90
2019-01-29T10:48:35.894Z,187.20
2019-01-29T10:53:03.077Z,193.23
2019-01-29T10:57:29.986Z,190.53
2019-01-29T11:01:57.529Z,188.50
2019-01-29T11:06:25.182Z,185.67
2019-01-29T11:10:52.388Z,187.43
2019-01-29T11:15:25.676Z,186.97
2019-01-29T11:19:53.268Z,191.77
2019-01-29T11:24:20.364Z,198.73
2019-01-29T11:28:47.664Z,193.23
2019-01-29T11:33:15.411Z,192.73
2019-01-29T11:37:42.613Z,194.57
2019-01-29T11:42:10.392Z,181.07
2019-01-29T11:46:38.149Z,188.00
2019-01-29T11:51:05.410Z,189.13
2019-01-29T11:55:32.472Z,188.23
2019-01-29T11:59:59.921Z,182.87
2019-01-29T12:04:27.212Z,185.97
2019-01-29T12:08:54.993Z,191.33
2019-01-29T12:13:22.830Z,194.30
2019-01-29T12:17:50.609Z,186.23
2019-01-29T12:22:17.675Z,190.23
2019-01-29T12:26:46.040Z,193.67
2019-01-29T12:31:14.866Z,181.70
2019-01-29T12:35:44.734Z,186.63
2019-01-29T12:40:14.138Z,188.80
2019-01-29T12:44:47.815Z,190.50
2019-01-29T12:49:17.289Z,191.53
2019-01-29T12:53:49.214Z,196.33
2019-01-29T12:58:20.579Z,188.77
2019-01-29T13:02:49.791Z,183.90
2019-01-29T13:07:20.417Z,185.17
2019-01-29T13:20:50.645Z,192.57
2019-01-29T13:25:17.809Z,223.60
2019-01-29T13:29:44.815Z,192.83
2019-01-29T13:34:12.683Z,191.60
2019-01-29T13:38:33.172Z,213.30
2019-01-29T13:42:43.975Z,197.27
2019-01-29T13:46:54.900Z,201.43
2019-01-29T13:51:05.845Z,204.93
2019-01-29T13:55:17.278Z,205.50
2019-01-29T13:59:29.175Z,208.13
2019-01-29T14:03:40.439Z,192.77
2019-01-29T14:07:51.255Z,194.70
2019-01-29T14:12:02.137Z,195.23
2019-01-29T14:16:12.959Z,199.07
2019-01-29T14:20:23.766Z,211.13
2019-01-29T14:24:34.571Z,201.00
2019-01-29T14:28:45.375Z,205.77
2019-01-29T14:32:56.288Z,201.33
2019-01-29T14:37:07.232Z,199.13
2019-01-29T14:41:18.156Z,198.93
2019-01-29T14:45:30.992Z,199.60
2019-01-29T14:49:41.820Z,214.10
2019-01-29T14:53:52.655Z,213.73
2019-01-29T14:58:04.033Z,212.80
2019-01-29T15:02:14.990Z,196.07
2019-01-29T15:06:32.360Z,207.00
2019-01-29T15:10:38.236Z,204.40
2019-01-29T15:14:49.143Z,207.87
2019-01-29T15:19:01.593Z,200.50
2019-01-29T15:23:12.476Z,221.77
2019-01-29T15:27:23.693Z,207.83
2019-01-29T15:31:34.593Z,205.80
2019-01-29T15:35:45.402Z,203.97
2019-01-29T15:39:56.317Z,204.53
2019-01-29T15:44:07.107Z,210.90
2019-01-29T15:48:17.918Z,205.80
2019-01-29T15:52:28.768Z,215.83
2019-01-29T15:56:39.785Z,222.27
2019-01-29T16:00:50.606Z,211.93
2019-01-29T16:05:01.530Z,202.57
2019-01-29T16:09:12.436Z,202.43
2019-01-29T16:13:23.353Z,209.30
2019-01-29T16:17:34.270Z,221.83
2019-01-29T16:21:45.078Z,209.90
2019-01-29T16:25:56.106Z,211.70
2019-01-29T16:30:15.857Z,222.23
2019-01-29T16:34:30.066Z,206.83
2019-01-29T16:38:40.857Z,214.07
2019-01-29T16:42:52.003Z,208.70
2019-01-29T16:47:02.981Z,201.90
2019-01-29T16:51:13.716Z,238.90
2019-01-29T16:55:24.619Z,208.57
2019-01-29T16:59:35.419Z,204.37
2019-01-29T17:03:46.229Z,205.07
2019-01-29T17:07:57.175Z,207.40
2019-01-29T17:12:08.084Z,203.30
2019-01-29T17:16:19.841Z,205.93
2019-01-29T17:20:41.615Z,214.60
2019-01-29T17:24:52.432Z,212.53
2019-01-29T17:29:03.248Z,203.40
2019-01-29T17:33:19.408Z,196.17
2019-01-29T17:37:31.672Z,212.77
2019-01-29T17:41:46.251Z,205.70
2019-01-29T17:45:57.173Z,202.87
2019-01-29T17:50:13.994Z,204.33
2019-01-29T17:54:24.965Z,211.23
2019-01-29T17:58:36.789Z,198.47
2019-01-29T18:02:47.673Z,201.67
2019-01-29T18:06:58.291Z,200.13
2019-01-29T18:11:09.505Z,200.73
2019-01-29T18:15:25.650Z,206.17
2019-01-29T18:19:37.234Z,197.17
2019-01-29T18:23:48.145Z,198.80
2019-01-29T18:28:01.393Z,197.73
2019-01-29T18:32:11.526Z,200.17
2019-01-29T18:36:22.611Z,201.63
2019-01-29T18:40:42.463Z,198.47
2019-01-29T18:44:53.295Z,191.30
2019-01-29T18:49:04.404Z,204.53
2019-01-29T18:53:15.357Z,201.63
2019-01-29T18:57:26.269Z,207.50
2019-01-29T19:01:37.288Z,209.17
2019-01-29T19:05:48.196Z,204.17
2019-01-29T19:09:59.113Z,196.37
2019-01-29T19:14:10.077Z,191.47
2019-01-29T19:18:20.979Z,197.33
2019-01-29T19:22:31.865Z,208.13
2019-01-29T19:26:41.905Z,198.73
2019-01-29T19:30:52.972Z,201.93
2019-01-29T19:35:04.392Z,191.87
2019-01-29T19:39:15.515Z,204.53
2019-01-29T19:43:26.461Z,191.17
2019-01-29T19:47:38.014Z,209.07
2019-01-29T19:51:49.182Z,218.83
2019-01-29T19:56:00.139Z,197.90
2019-01-29T20:00:23.369Z,199.90
2019-01-29T20:04:34.656Z,207.60
2019-01-29T20:08:45.635Z,191.53
2019-01-29T20:12:56.456Z,195.00
2019-01-29T20:17:07.379Z,196.00
2019-01-29T20:21:18.213Z,194.02
2019-01-29T20:25:29.136Z,196.10
2019-01-29T20:29:39.943Z,187.50
2019-01-29T20:33:50.761Z,195.27
2019-01-29T20:38:01.699Z,185.30
2019-01-29T20:42:12.616Z,184.70
2019-01-29T20:46:23.431Z,190.03
2019-01-29T20:50:36.607Z,196.70
2019-01-29T20:54:47.416Z,201.97
2019-01-29T20:58:59.311Z,195.47
2019-01-29T21:03:10.348Z,185.63
2019-01-29T21:07:21.264Z,193.45
2019-01-29T21:11:32.193Z,185.77
2019-01-29T21:15:43.011Z,190.10
2019-01-29T21:19:53.838Z,198.87
2019-01-29T21:24:04.780Z,191.90
2019-01-29T21:28:15.699Z,199.50
2019-01-29T21:32:26.518Z,199.03
2019-01-29T21:36:37.487Z,195.03
2019-01-29T21:40:48.410Z,183.40
2019-01-29T21:44:59.209Z,190.63
2019-01-29T21:49:10.033Z,188.17
2019-01-29T21:53:20.868Z,199.30
2019-01-29T21:57:31.696Z,195.10
2019-01-29T22:01:42.527Z,185.93
2019-01-29T22:05:53.343Z,191.67
2019-01-29T22:10:06.720Z,189.80
2019-01-29T22:14:17.563Z,193.37
2019-01-29T22:18:28.494Z,195.87
2019-01-29T22:22:39.435Z,196.37
2019-01-29T22:26:50.556Z,199.57
2019-01-29T22:31:01.474Z,192.13
2019-01-29T22:35:12.383Z,200.77
2019-01-29T22:39:23.311Z,194.87
2019-01-29T22:43:34.259Z,188.90
2019-01-29T22:47:45.612Z,188.07
2019-01-29T22:51:55.444Z,185.20
2019-01-29T22:56:06.393Z,193.55
2019-01-29T23:00:55.934Z,203.90
2019-01-29T23:05:08.735Z,192.20
2019-01-29T23:09:19.584Z,190.80
2019-01-29T23:13:30.443Z,198.27
2019-01-29T23:17:42.332Z,192.63
2019-01-29T23:21:53.349Z,197.70
2019-01-29T23:26:04.215Z,193.45
2019-01-29T23:30:21.440Z,183.93
2019-01-29T23:34:34.100Z,184.57
2019-01-29T23:38:47.382Z,189.17
2019-01-29T23:42:57.395Z,175.70
2019-01-29T23:47:08.375Z,187.43
2019-01-29T23:51:19.196Z,191.63
2019-01-29T23:55:30.128Z,202.93
2019-01-29T23:59:40.059Z,187.33
